sensor_id;sensor_type;location;lat;lon;timestamp;pressure;altitude;pressure_sealevel;temperature;humidity
50364;BME280;36272;59.400;17.982;2023-02-14T00:04:28;102782.66;;;6.37;74.49
50364;BME280;36272;59.400;17.982;2023-02-14T00:09:30;102779.28;;;6.35;74.59
50364;BME280;36272;59.400;17.982;2023-02-14T00:14:32;102783.22;;;6.31;74.37
50364;BME280;36272;59.400;17.982;2023-02-14T00:19:52;102791.19;;;6.31;74.33
50364;BME280;36272;59.400;17.982;2023-02-14T00:24:54;102792.16;;;6.30;74.15
50364;BME280;36272;59.400;17.982;2023-02-14T00:29:56;102788.81;;;6.28;74.28
50364;BME280;36272;59.400;17.982;2023-02-14T00:35:02;102796.09;;;6.25;74.48
50364;BME280;36272;59.400;17.982;2023-02-14T00:40:05;102788.81;;;6.28;74.22
50364;BME280;36272;59.400;17.982;2023-02-14T00:45:07;102801.94;;;6.29;74.10
50364;BME280;36272;59.400;17.982;2023-02-14T00:50:10;102803.91;;;6.27;74.19
50364;BME280;36272;59.400;17.982;2023-02-14T00:55:11;102795.53;;;6.22;73.98
50364;BME280;36272;59.400;17.982;2023-02-14T01:00:13;102801.13;;;6.19;74.11
50364;BME280;36272;59.400;17.982;2023-02-14T01:05:15;102802.13;;;6.18;73.97
50364;BME280;36272;59.400;17.982;2023-02-14T01:10:17;102815.13;;;6.11;74.24
50364;BME280;36272;59.400;17.982;2023-02-14T01:15:18;102808.41;;;6.07;73.92
50364;BME280;36272;59.400;17.982;2023-02-14T01:20:20;102815.84;;;6.03;74.10
50364;BME280;36272;59.400;17.982;2023-02-14T01:25:22;102801.13;;;5.99;74.15
50364;BME280;36272;59.400;17.982;2023-02-14T01:30:24;102799.03;;;5.93;74.05
50364;BME280;36272;59.400;17.982;2023-02-14T01:35:26;102820.81;;;5.87;73.86
50364;BME280;36272;59.400;17.982;2023-02-14T01:40:28;102812.84;;;5.77;74.04
50364;BME280;36272;59.400;17.982;2023-02-14T01:45:29;102826.13;;;5.67;74.39
50364;BME280;36272;59.400;17.982;2023-02-14T01:50:35;102821.75;;;5.56;74.38
50364;BME280;36272;59.400;17.982;2023-02-14T01:55:42;102821.47;;;5.49;74.53
50364;BME280;36272;59.400;17.982;2023-02-14T02:00:45;102830.69;;;5.45;74.77
50364;BME280;36272;59.400;17.982;2023-02-14T02:06:26;102831.81;;;5.43;75.10
50364;BME280;36272;59.400;17.982;2023-02-14T02:11:29;102846.00;;;5.32;75.10
50364;BME280;36272;59.400;17.982;2023-02-14T02:27:36;102841.53;;;5.23;75.12
50364;BME280;36272;59.400;17.982;2023-02-14T02:43:55;102840.41;;;5.25;75.59
50364;BME280;36272;59.400;17.982;2023-02-14T02:54:57;102852.72;;;5.26;75.63
50364;BME280;36272;59.400;17.982;2023-02-14T03:00:03;102843.78;;;5.27;75.29
50364;BME280;36272;59.400;17.982;2023-02-14T03:05:06;102872.97;;;5.27;75.29
50364;BME280;36272;59.400;17.982;2023-02-14T03:10:23;102863.75;;;5.21;75.61
50364;BME280;36272;59.400;17.982;2023-02-14T03:31:25;102866.25;;;4.92;75.65
50364;BME280;36272;59.400;17.982;2023-02-14T03:42:04;102878.44;;;4.73;75.40
50364;BME280;36272;59.400;17.982;2023-02-14T03:47:11;102875.06;;;4.71;75.79
50364;BME280;36272;59.400;17.982;2023-02-14T03:52:14;102874.09;;;4.72;75.82
50364;BME280;36272;59.400;17.982;2023-02-14T03:57:31;102877.72;;;4.71;76.04
50364;BME280;36272;59.400;17.982;2023-02-14T04:02:36;102892.66;;;4.72;75.99
50364;BME280;36272;59.400;17.982;2023-02-14T04:07:55;102877.47;;;4.74;76.21
50364;BME280;36272;59.400;17.982;2023-02-14T04:12:57;102894.06;;;4.76;76.17
50364;BME280;36272;59.400;17.982;2023-02-14T04:17:58;102895.66;;;4.79;76.16
50364;BME280;36272;59.400;17.982;2023-02-14T04:23:19;102903.47;;;4.81;76.05
50364;BME280;36272;59.400;17.982;2023-02-14T04:28:20;102889.22;;;4.82;76.12
50364;BME280;36272;59.400;17.982;2023-02-14T04:33:22;102901.66;;;4.81;76.00
50364;BME280;36272;59.400;17.982;2023-02-14T04:38:24;102901.91;;;4.78;76.27
50364;BME280;36272;59.400;17.982;2023-02-14T04:43:25;102906.97;;;4.81;76.28
50364;BME280;36272;59.400;17.982;2023-02-14T04:48:27;102909.97;;;4.76;76.39
50364;BME280;36272;59.400;17.982;2023-02-14T04:53:28;102913.03;;;4.72;76.29
50364;BME280;36272;59.400;17.982;2023-02-14T04:58:30;102910.75;;;4.67;76.27
50364;BME280;36272;59.400;17.982;2023-02-14T05:03:32;102911.00;;;4.64;76.72
50364;BME280;36272;59.400;17.982;2023-02-14T05:08:33;102907.41;;;4.65;76.73
50364;BME280;36272;59.400;17.982;2023-02-14T05:13:35;102912.59;;;4.67;76.93
50364;BME280;36272;59.400;17.982;2023-02-14T05:18:36;102912.44;;;4.68;76.86
50364;BME280;36272;59.400;17.982;2023-02-14T05:23:38;102905.19;;;4.70;76.84
50364;BME280;36272;59.400;17.982;2023-02-14T05:28:40;102902.69;;;4.69;76.84
50364;BME280;36272;59.400;17.982;2023-02-14T05:33:42;102920.53;;;4.67;76.78
50364;BME280;36272;59.400;17.982;2023-02-14T05:38:54;102903.66;;;4.68;77.16
50364;BME280;36272;59.400;17.982;2023-02-14T05:43:56;102913.28;;;4.69;77.04
50364;BME280;36272;59.400;17.982;2023-02-14T05:48:58;102918.59;;;4.69;76.97
50364;BME280;36272;59.400;17.982;2023-02-14T05:53:59;102932.69;;;4.69;76.93
50364;BME280;36272;59.400;17.982;2023-02-14T05:59:01;102921.09;;;4.70;76.99
50364;BME280;36272;59.400;17.982;2023-02-14T06:04:03;102923.66;;;4.72;77.21
50364;BME280;36272;59.400;17.982;2023-02-14T06:09:05;102931.47;;;4.73;77.17
50364;BME280;36272;59.400;17.982;2023-02-14T06:14:06;102929.53;;;4.75;77.26
50364;BME280;36272;59.400;17.982;2023-02-14T06:19:08;102920.59;;;4.76;77.22
50364;BME280;36272;59.400;17.982;2023-02-14T06:24:09;102926.88;;;4.75;77.12
50364;BME280;36272;59.400;17.982;2023-02-14T06:29:11;102939.88;;;4.79;77.15
50364;BME280;36272;59.400;17.982;2023-02-14T06:34:13;102942.53;;;4.79;77.18
50364;BME280;36272;59.400;17.982;2023-02-14T06:39:20;102933.47;;;4.81;77.52
50364;BME280;36272;59.400;17.982;2023-02-14T06:44:21;102948.28;;;4.84;77.38
50364;BME280;36272;59.400;17.982;2023-02-14T06:49:28;102925.13;;;4.86;77.40
50364;BME280;36272;59.400;17.982;2023-02-14T06:54:30;102943.53;;;4.87;77.22
50364;BME280;36272;59.400;17.982;2023-02-14T06:59:32;102942.97;;;4.84;77.54
50364;BME280;36272;59.400;17.982;2023-02-14T07:04:33;102953.59;;;4.84;77.28
50364;BME280;36272;59.400;17.982;2023-02-14T07:09:35;102956.13;;;4.85;77.71
50364;BME280;36272;59.400;17.982;2023-02-14T07:14:37;102965.94;;;4.95;77.32
50364;BME280;36272;59.400;17.982;2023-02-14T07:19:38;102964.84;;;4.97;77.22
50364;BME280;36272;59.400;17.982;2023-02-14T07:24:40;102962.75;;;5.01;77.19
50364;BME280;36272;59.400;17.982;2023-02-14T07:29:42;102966.84;;;5.05;77.12
50364;BME280;36272;59.400;17.982;2023-02-14T07:34:44;102964.75;;;5.09;77.21
50364;BME280;36272;59.400;17.982;2023-02-14T07:39:46;102953.63;;;5.15;77.10
50364;BME280;36272;59.400;17.982;2023-02-14T07:44:47;102959.84;;;5.25;76.88
50364;BME280;36272;59.400;17.982;2023-02-14T07:49:54;102952.75;;;5.35;76.72
50364;BME280;36272;59.400;17.982;2023-02-14T07:54:56;102973.22;;;5.45;76.45
50364;BME280;36272;59.400;17.982;2023-02-14T07:59:57;102971.41;;;5.55;76.31
50364;BME280;36272;59.400;17.982;2023-02-14T08:04:59;102968.81;;;5.65;76.24
50364;BME280;36272;59.400;17.982;2023-02-14T08:10:01;102968.28;;;5.71;76.12
50364;BME280;36272;59.400;17.982;2023-02-14T08:15:03;102970.25;;;5.79;75.58
50364;BME280;36272;59.400;17.982;2023-02-14T08:20:23;102971.41;;;5.86;76.00
50364;BME280;36272;59.400;17.982;2023-02-14T08:25:25;102966.81;;;5.98;75.58
50364;BME280;36272;59.400;17.982;2023-02-14T08:30:28;102963.38;;;6.07;75.57
50364;BME280;36272;59.400;17.982;2023-02-14T08:35:30;102966.47;;;6.22;75.22
50364;BME280;36272;59.400;17.982;2023-02-14T08:40:33;102953.31;;;6.31;75.08
50364;BME280;36272;59.400;17.982;2023-02-14T08:45:35;102963.69;;;6.44;74.88
50364;BME280;36272;59.400;17.982;2023-02-14T08:50:38;102957.66;;;6.51;74.63
50364;BME280;36272;59.400;17.982;2023-02-14T08:55:40;102970.94;;;6.51;74.47
50364;BME280;36272;59.400;17.982;2023-02-14T09:00:42;102973.75;;;6.50;74.38
50364;BME280;36272;59.400;17.982;2023-02-14T09:05:43;102981.03;;;6.48;74.26
50364;BME280;36272;59.400;17.982;2023-02-14T09:10:45;102984.69;;;6.37;74.29
50364;BME280;36272;59.400;17.982;2023-02-14T09:15:46;102980.88;;;6.30;74.67
50364;BME280;36272;59.400;17.982;2023-02-14T09:20:51;102972.59;;;6.23;74.66
50364;BME280;36272;59.400;17.982;2023-02-14T09:26:02;102965.34;;;6.15;74.57
50364;BME280;36272;59.400;17.982;2023-02-14T09:31:18;102959.47;;;6.12;74.77
50364;BME280;36272;59.400;17.982;2023-02-14T09:36:19;102977.47;;;6.08;74.50
50364;BME280;36272;59.400;17.982;2023-02-14T09:42:00;102956.09;;;6.09;74.87
50364;BME280;36272;59.400;17.982;2023-02-14T09:52:31;102961.16;;;6.22;74.65
50364;BME280;36272;59.400;17.982;2023-02-14T09:58:12;102947.72;;;6.34;74.93
50364;BME280;36272;59.400;17.982;2023-02-14T10:03:47;102954.47;;;6.38;74.82
50364;BME280;36272;59.400;17.982;2023-02-14T10:14:22;102929.38;;;6.50;74.50
50364;BME280;36272;59.400;17.982;2023-02-14T10:19:51;102937.22;;;6.62;74.65
50364;BME280;36272;59.400;17.982;2023-02-14T10:24:59;102935.94;;;6.76;74.45
50364;BME280;36272;59.400;17.982;2023-02-14T10:30:14;102932.84;;;6.90;74.12
50364;BME280;36272;59.400;17.982;2023-02-14T10:35:34;102931.41;;;7.06;74.09
50364;BME280;36272;59.400;17.982;2023-02-14T10:51:32;102935.97;;;7.51;73.20
50364;BME280;36272;59.400;17.982;2023-02-14T10:56:42;102925.94;;;7.73;73.04
50364;BME280;36272;59.400;17.982;2023-02-14T11:01:46;102936.97;;;7.78;72.14
50364;BME280;36272;59.400;17.982;2023-02-14T11:06:50;102922.31;;;7.92;72.41
50364;BME280;36272;59.400;17.982;2023-02-14T11:11:59;102915.22;;;8.01;71.92
50364;BME280;36272;59.400;17.982;2023-02-14T11:22:30;102915.56;;;8.16;71.25
50364;BME280;36272;59.400;17.982;2023-02-14T11:27:32;102920.41;;;8.21;71.47
50364;BME280;36272;59.400;17.982;2023-02-14T11:32:35;102913.31;;;8.29;71.35
50364;BME280;36272;59.400;17.982;2023-02-14T11:37:50;102904.22;;;8.50;70.29
50364;BME280;36272;59.400;17.982;2023-02-14T11:42:54;102901.81;;;9.18;69.56
50364;BME280;36272;59.400;17.982;2023-02-14T11:48:24;102895.75;;;10.60;66.61
50364;BME280;36272;59.400;17.982;2023-02-14T11:53:32;102884.75;;;11.11;65.42
50364;BME280;36272;59.400;17.982;2023-02-14T11:58:53;102880.75;;;11.47;63.90
50364;BME280;36272;59.400;17.982;2023-02-14T12:03:59;102871.84;;;12.47;63.43
50364;BME280;36272;59.400;17.982;2023-02-14T12:09:31;102861.69;;;15.12;58.84
50364;BME280;36272;59.400;17.982;2023-02-14T12:14:34;102860.75;;;17.08;56.07
50364;BME280;36272;59.400;17.982;2023-02-14T12:25:16;102859.16;;;19.28;51.86
50364;BME280;36272;59.400;17.982;2023-02-14T12:30:23;102851.84;;;20.02;50.54
50364;BME280;36272;59.400;17.982;2023-02-14T12:41:24;102831.97;;;21.60;49.30
50364;BME280;36272;59.400;17.982;2023-02-14T13:29:18;102813.31;;;23.31;44.57
50364;BME280;36272;59.400;17.982;2023-02-14T13:34:42;102826.66;;;21.99;45.97
50364;BME280;36272;59.400;17.982;2023-02-14T13:39:48;102825.63;;;19.53;47.40
50364;BME280;36272;59.400;17.982;2023-02-14T13:44:50;102841.75;;;17.67;49.54
50364;BME280;36272;59.400;17.982;2023-02-14T13:49:59;102820.88;;;16.11;50.59
50364;BME280;36272;59.400;17.982;2023-02-14T13:55:05;102821.75;;;14.80;52.20
50364;BME280;36272;59.400;17.982;2023-02-14T14:10:46;102816.22;;;12.71;55.17
50364;BME280;36272;59.400;17.982;2023-02-14T14:21:33;102805.31;;;12.04;56.72
50364;BME280;36272;59.400;17.982;2023-02-14T14:26:41;102804.63;;;11.79;57.00
50364;BME280;36272;59.400;17.982;2023-02-14T14:31:44;102801.09;;;11.64;57.52
50364;BME280;36272;59.400;17.982;2023-02-14T14:36:47;102810.94;;;11.40;57.74
50364;BME280;36272;59.400;17.982;2023-02-14T14:41:55;102795.06;;;10.98;57.89
50364;BME280;36272;59.400;17.982;2023-02-14T14:46:58;102786.50;;;10.71;58.69
50364;BME280;36272;59.400;17.982;2023-02-14T14:52:00;102799.25;;;10.45;59.31
50364;BME280;36272;59.400;17.982;2023-02-14T14:57:02;102791.59;;;10.17;59.61
50364;BME280;36272;59.400;17.982;2023-02-14T15:02:22;102780.91;;;9.92;60.20
50364;BME280;36272;59.400;17.982;2023-02-14T15:07:32;102781.41;;;9.71;60.52
50364;BME280;36272;59.400;17.982;2023-02-14T15:12:35;102797.56;;;9.52;60.73
50364;BME280;36272;59.400;17.982;2023-02-14T15:17:55;102785.34;;;9.33;61.47
50364;BME280;36272;59.400;17.982;2023-02-14T15:22:57;102791.16;;;9.20;61.53
50364;BME280;36272;59.400;17.982;2023-02-14T15:27:59;102785.09;;;9.02;61.76
50364;BME280;36272;59.400;17.982;2023-02-14T15:33:02;102781.34;;;8.86;62.11
50364;BME280;36272;59.400;17.982;2023-02-14T15:38:05;102777.47;;;8.72;62.47
50364;BME280;36272;59.400;17.982;2023-02-14T15:43:24;102781.91;;;8.63;62.82
50364;BME280;36272;59.400;17.982;2023-02-14T15:48:30;102782.63;;;8.47;62.93
50364;BME280;36272;59.400;17.982;2023-02-14T15:53:43;102779.19;;;8.29;63.40
50364;BME280;36272;59.400;17.982;2023-02-14T16:03:59;102779.78;;;7.96;64.07
50364;BME280;36272;59.400;17.982;2023-02-14T16:09:04;102781.31;;;7.81;64.37
50364;BME280;36272;59.400;17.982;2023-02-14T16:14:30;102779.19;;;7.66;64.91
50364;BME280;36272;59.400;17.982;2023-02-14T16:24:35;102783.19;;;7.34;65.21
50364;BME280;36272;59.400;17.982;2023-02-14T16:29:38;102780.34;;;7.18;65.68
50364;BME280;36272;59.400;17.982;2023-02-14T16:34:41;102781.25;;;7.08;65.97
50364;BME280;36272;59.400;17.982;2023-02-14T16:39:43;102786.34;;;7.02;66.22
50364;BME280;36272;59.400;17.982;2023-02-14T16:44:45;102787.50;;;6.89;66.33
50364;BME280;36272;59.400;17.982;2023-02-14T16:49:47;102791.19;;;6.78;66.84
50364;BME280;36272;59.400;17.982;2023-02-14T16:54:54;102798.66;;;6.65;67.07
50364;BME280;36272;59.400;17.982;2023-02-14T16:59:56;102797.53;;;6.58;67.16
50364;BME280;36272;59.400;17.982;2023-02-14T17:05:01;102791.00;;;6.42;67.67
50364;BME280;36272;59.400;17.982;2023-02-14T17:10:10;102777.91;;;6.31;67.78
50364;BME280;36272;59.400;17.982;2023-02-14T17:15:17;102788.13;;;6.16;67.87
50364;BME280;36272;59.400;17.982;2023-02-14T17:20:20;102807.53;;;5.96;68.16
50364;BME280;36272;59.400;17.982;2023-02-14T17:25:22;102798.44;;;5.79;68.53
50364;BME280;36272;59.400;17.982;2023-02-14T17:30:24;102800.69;;;5.64;68.66
50364;BME280;36272;59.400;17.982;2023-02-14T17:35:26;102809.06;;;5.50;68.77
50364;BME280;36272;59.400;17.982;2023-02-14T17:40:32;102799.22;;;5.31;69.41
50364;BME280;36272;59.400;17.982;2023-02-14T17:45:34;102819.28;;;5.14;69.78
50364;BME280;36272;59.400;17.982;2023-02-14T17:50:36;102815.19;;;5.00;69.74
50364;BME280;36272;59.400;17.982;2023-02-14T17:55:38;102830.63;;;4.85;70.10
50364;BME280;36272;59.400;17.982;2023-02-14T18:00:39;102824.13;;;4.68;70.38
50364;BME280;36272;59.400;17.982;2023-02-14T18:05:43;102824.72;;;4.50;70.83
50364;BME280;36272;59.400;17.982;2023-02-14T18:10:45;102817.38;;;4.32;71.29
50364;BME280;36272;59.400;17.982;2023-02-14T18:15:51;102806.03;;;4.09;72.06
50364;BME280;36272;59.400;17.982;2023-02-14T18:21:18;102797.00;;;3.79;72.62
50364;BME280;36272;59.400;17.982;2023-02-14T18:26:35;102800.81;;;3.54;73.88
50364;BME280;36272;59.400;17.982;2023-02-14T18:32:09;102821.66;;;3.47;74.11
50364;BME280;36272;59.400;17.982;2023-02-14T18:37:12;102808.91;;;3.41;74.57
50364;BME280;36272;59.400;17.982;2023-02-14T18:42:14;102825.97;;;3.37;75.38
50364;BME280;36272;59.400;17.982;2023-02-14T18:47:15;102820.94;;;3.34;75.70
50364;BME280;36272;59.400;17.982;2023-02-14T18:52:17;102816.13;;;3.39;75.72
50364;BME280;36272;59.400;17.982;2023-02-14T18:57:19;102813.72;;;3.36;76.36
50364;BME280;36272;59.400;17.982;2023-02-14T19:02:20;102818.28;;;3.45;76.27
50364;BME280;36272;59.400;17.982;2023-02-14T19:07:22;102813.38;;;3.40;76.65
50364;BME280;36272;59.400;17.982;2023-02-14T19:12:24;102810.97;;;3.37;77.04
50364;BME280;36272;59.400;17.982;2023-02-14T19:17:26;102797.25;;;3.44;76.72
50364;BME280;36272;59.400;17.982;2023-02-14T19:22:28;102808.56;;;3.46;77.76
50364;BME280;36272;59.400;17.982;2023-02-14T19:27:31;102799.91;;;3.44;77.89
50364;BME280;36272;59.400;17.982;2023-02-14T19:32:35;102799.16;;;3.53;78.03
50364;BME280;36272;59.400;17.982;2023-02-14T19:37:37;102798.78;;;3.57;78.09
50364;BME280;36272;59.400;17.982;2023-02-14T19:42:42;102796.13;;;3.57;78.07
50364;BME280;36272;59.400;17.982;2023-02-14T19:47:43;102790.94;;;3.56;78.52
50364;BME280;36272;59.400;17.982;2023-02-14T19:52:45;102790.94;;;3.56;79.07
50364;BME280;36272;59.400;17.982;2023-02-14T19:57:47;102785.03;;;3.64;78.67
50364;BME280;36272;59.400;17.982;2023-02-14T20:02:49;102769.72;;;3.67;78.91
50364;BME280;36272;59.400;17.982;2023-02-14T20:07:51;102775.88;;;3.68;78.99
50364;BME280;36272;59.400;17.982;2023-02-14T20:12:56;102771.50;;;3.78;79.01
50364;BME280;36272;59.400;17.982;2023-02-14T20:17:57;102768.59;;;3.81;79.60
50364;BME280;36272;59.400;17.982;2023-02-14T20:22:59;102763.44;;;3.80;79.41
50364;BME280;36272;59.400;17.982;2023-02-14T20:28:01;102752.84;;;3.80;79.62
50364;BME280;36272;59.400;17.982;2023-02-14T20:33:02;102757.53;;;3.76;80.05
50364;BME280;36272;59.400;17.982;2023-02-14T20:38:05;102756.47;;;3.79;80.52
50364;BME280;36272;59.400;17.982;2023-02-14T20:43:09;102768.47;;;3.83;80.51
50364;BME280;36272;59.400;17.982;2023-02-14T20:48:11;102762.34;;;3.82;80.55
50364;BME280;36272;59.400;17.982;2023-02-14T20:53:12;102756.78;;;3.85;80.60
50364;BME280;36272;59.400;17.982;2023-02-14T20:58:17;102751.50;;;3.85;81.47
50364;BME280;36272;59.400;17.982;2023-02-14T21:03:19;102753.88;;;3.89;81.07
50364;BME280;36272;59.400;17.982;2023-02-14T21:08:21;102747.63;;;3.90;81.22
50364;BME280;36272;59.400;17.982;2023-02-14T21:13:24;102761.56;;;3.92;81.31
50364;BME280;36272;59.400;17.982;2023-02-14T21:18:26;102755.19;;;3.94;81.80
50364;BME280;36272;59.400;17.982;2023-02-14T21:23:31;102758.41;;;3.98;81.61
50364;BME280;36272;59.400;17.982;2023-02-14T21:28:37;102750.22;;;4.01;81.72
50364;BME280;36272;59.400;17.982;2023-02-14T21:33:39;102749.97;;;4.04;81.44
50364;BME280;36272;59.400;17.982;2023-02-14T21:38:42;102745.84;;;4.11;81.27
50364;BME280;36272;59.400;17.982;2023-02-14T21:43:45;102737.88;;;4.11;81.56
50364;BME280;36272;59.400;17.982;2023-02-14T21:48:47;102751.69;;;4.15;81.37
50364;BME280;36272;59.400;17.982;2023-02-14T21:54:08;102753.94;;;4.20;81.41
50364;BME280;36272;59.400;17.982;2023-02-14T21:59:10;102760.25;;;4.19;81.60
50364;BME280;36272;59.400;17.982;2023-02-14T22:04:15;102750.06;;;4.24;81.38
50364;BME280;36272;59.400;17.982;2023-02-14T22:09:17;102746.34;;;4.26;81.49
50364;BME280;36272;59.400;17.982;2023-02-14T22:14:19;102752.19;;;4.30;81.32
50364;BME280;36272;59.400;17.982;2023-02-14T22:19:21;102739.66;;;4.32;81.18
50364;BME280;36272;59.400;17.982;2023-02-14T22:24:22;102740.81;;;4.39;80.99
50364;BME280;36272;59.400;17.982;2023-02-14T22:29:24;102735.53;;;4.39;81.18
50364;BME280;36272;59.400;17.982;2023-02-14T22:34:26;102731.19;;;4.38;81.20
50364;BME280;36272;59.400;17.982;2023-02-14T22:39:27;102729.25;;;4.40;80.88
50364;BME280;36272;59.400;17.982;2023-02-14T22:44:29;102717.53;;;4.43;81.13
50364;BME280;36272;59.400;17.982;2023-02-14T22:49:31;102708.50;;;4.45;80.95
50364;BME280;36272;59.400;17.982;2023-02-14T22:54:32;102716.44;;;4.45;80.99
50364;BME280;36272;59.400;17.982;2023-02-14T22:59:34;102704.88;;;4.46;81.04
50364;BME280;36272;59.400;17.982;2023-02-14T23:04:36;102698.59;;;4.47;80.98
50364;BME280;36272;59.400;17.982;2023-02-14T23:09:37;102692.72;;;4.44;81.14
50364;BME280;36272;59.400;17.982;2023-02-14T23:14:39;102682.97;;;4.44;81.22
50364;BME280;36272;59.400;17.982;2023-02-14T23:20:00;102675.72;;;4.46;81.07
50364;BME280;36272;59.400;17.982;2023-02-14T23:25:20;102682.19;;;4.54;80.64
50364;BME280;36272;59.400;17.982;2023-02-14T23:30:22;102675.63;;;4.58;80.52
50364;BME280;36272;59.400;17.982;2023-02-14T23:35:24;102687.66;;;4.62;80.55
50364;BME280;36272;59.400;17.982;2023-02-14T23:40:25;102687.50;;;4.64;80.56
50364;BME280;36272;59.400;17.982;2023-02-14T23:45:27;102674.94;;;4.66;80.33
50364;BME280;36272;59.400;17.982;2023-02-14T23:50:35;102669.38;;;4.69;80.20
50364;BME280;36272;59.400;17.982;2023-02-14T23:55:36;102666.84;;;4.67;80.32
